createdAt,value
2018-11-27T00:00:01.891Z,4.43
2018-11-27T00:05:01.180Z,4.33
2018-11-27T00:15:01.870Z,4.3
2018-11-27T00:20:01.121Z,4.47
2018-11-27T00:25:01.425Z,4.24
2018-11-27T00:30:01.711Z,4.46
2018-11-27T00:35:01.953Z,4.24
2018-11-27T00:40:01.205Z,4.24
2018-11-27T00:45:01.578Z,4.41
2018-11-27T00:50:01.873Z,4.24
2018-11-27T00:55:01.124Z,4.13
2018-11-27T01:00:01.386Z,4.13
2018-11-27T01:05:01.669Z,3.95
2018-11-27T01:10:01.910Z,3.84
2018-11-27T01:15:01.158Z,3.94
2018-11-27T01:20:01.452Z,3.88
2018-11-27T01:25:01.745Z,3.8
2018-11-27T01:30:01.967Z,3.76
2018-11-27T01:35:01.249Z,3.74
2018-11-27T01:40:01.577Z,3.74
2018-11-27T01:45:01.912Z,3.75
2018-11-27T01:50:01.173Z,3.88
2018-11-27T01:55:01.448Z,3.77
2018-11-27T02:00:01.877Z,3.94
2018-11-27T02:05:01.230Z,3.73
2018-11-27T02:10:01.629Z,3.67
2018-11-27T02:15:01.897Z,3.73
2018-11-27T02:20:01.299Z,3.93
2018-11-27T02:25:01.489Z,3.97
2018-11-27T02:30:01.789Z,3.97
2018-11-27T02:35:02.100Z,3.94
2018-11-27T02:40:01.383Z,3.67
2018-11-27T02:45:01.762Z,3.68
2018-11-27T02:50:02.018Z,3.75
2018-11-27T02:55:01.271Z,3.84
2018-11-27T03:00:01.578Z,3.91
2018-11-27T03:05:01.905Z,3.95
2018-11-27T03:10:01.155Z,3.95
2018-11-27T03:15:01.457Z,3.94
2018-11-27T03:20:01.811Z,3.89
2018-11-27T03:25:02.071Z,3.84
2018-11-27T03:30:01.533Z,3.83
2018-11-27T03:35:01.834Z,3.74
2018-11-27T03:40:02.015Z,3.73
2018-11-27T03:45:01.282Z,3.7
2018-11-27T03:50:01.645Z,3.62
2018-11-27T03:55:01.913Z,3.54
2018-11-27T04:00:01.167Z,3.45
2018-11-27T04:05:01.462Z,3.4
2018-11-27T04:10:01.712Z,3.25
2018-11-27T04:15:01.968Z,3.16
2018-11-27T04:20:01.211Z,3.14
2018-11-27T04:25:01.529Z,3.08
2018-11-27T04:30:01.786Z,2.88
2018-11-27T04:35:02.053Z,2.74
2018-11-27T04:40:01.285Z,2.79
2018-11-27T04:45:01.600Z,2.78
2018-11-27T04:50:01.838Z,2.74
2018-11-27T04:55:02.087Z,2.7
2018-11-27T05:00:01.459Z,2.6
2018-11-27T05:05:01.769Z,2.44
2018-11-27T05:10:02.028Z,2.29
2018-11-27T05:15:01.262Z,2.24
2018-11-27T05:20:01.528Z,2.15
2018-11-27T05:25:01.828Z,2.09
2018-11-27T05:30:01.096Z,2.05
2018-11-27T05:35:01.469Z,1.97
2018-11-27T05:40:01.226Z,1.97
2018-11-27T05:45:01.514Z,1.86
2018-11-27T05:50:01.792Z,2.23
2018-11-27T05:55:02.033Z,2.16
2018-11-27T06:00:01.267Z,2.09
2018-11-27T06:05:01.607Z,1.95
2018-11-27T06:10:01.903Z,1.79
2018-11-27T06:15:01.154Z,1.69
2018-11-27T06:20:01.439Z,1.67
2018-11-27T06:25:01.726Z,1.77
2018-11-27T06:30:01.959Z,1.55
2018-11-27T06:35:01.248Z,1.51
2018-11-27T06:40:01.502Z,1.63
2018-11-27T06:45:01.795Z,1.49
2018-11-27T06:50:02.029Z,1.5
2018-11-27T06:55:01.264Z,1.36
2018-11-27T07:00:01.547Z,1.37
2018-11-27T07:05:01.833Z,1.49
2018-11-27T07:10:02.064Z,1.62
2018-11-27T07:15:01.314Z,1.79
2018-11-27T07:20:01.595Z,1.86
2018-11-27T07:25:01.871Z,1.87
2018-11-27T07:30:01.123Z,1.93
2018-11-27T07:35:01.394Z,1.95
2018-11-27T07:40:03.328Z,2.05
2018-11-27T07:45:01.690Z,2.08
2018-11-27T07:50:01.959Z,2.19
2018-11-27T07:55:01.225Z,2.12
2018-11-27T08:00:01.523Z,2.22
2018-11-27T08:05:01.831Z,2.42
2018-11-27T08:10:02.062Z,2.52
2018-11-27T08:15:01.314Z,2.62
2018-11-27T08:20:01.585Z,2.81
2018-11-27T08:25:01.946Z,2.89
2018-11-27T08:30:01.179Z,2.98
2018-11-27T08:35:01.729Z,3.11
2018-11-27T08:40:01.963Z,3.28
2018-11-27T08:45:01.192Z,3.29
2018-11-27T08:50:01.462Z,3.38
2018-11-27T08:55:01.763Z,3.7
2018-11-27T09:00:01.999Z,4.2
2018-11-27T09:05:01.324Z,4.53
2018-11-27T09:10:01.612Z,4.74
2018-11-27T09:15:01.869Z,4.63
2018-11-27T09:20:01.106Z,4.56
2018-11-27T09:25:01.361Z,4.56
2018-11-27T09:30:01.610Z,4.52
2018-11-27T09:35:01.914Z,4.61
2018-11-27T09:40:01.154Z,4.74
2018-11-27T09:45:01.442Z,4.8
2018-11-27T09:50:01.780Z,4.79
2018-11-27T09:55:02.059Z,4.78
2018-11-27T10:00:01.310Z,4.79
2018-11-27T10:05:01.629Z,4.79
2018-11-27T10:10:01.974Z,4.73
2018-11-27T10:15:01.290Z,4.79
2018-11-27T10:20:01.583Z,4.58
2018-11-27T10:25:01.845Z,4.5
2018-11-27T10:30:01.105Z,4.53
2018-11-27T10:35:01.446Z,4.49
2018-11-27T10:40:01.734Z,4.5
2018-11-27T10:45:02.092Z,4.51
2018-11-27T10:50:01.401Z,4.54
2018-11-27T10:55:01.679Z,4.62
2018-11-27T11:00:01.942Z,4.57
2018-11-27T11:05:01.228Z,4.63
2018-11-27T11:10:01.527Z,4.64
2018-11-27T11:15:01.864Z,4.66
2018-11-27T11:20:01.177Z,4.72
2018-11-27T11:25:01.467Z,4.73
2018-11-27T11:30:01.724Z,4.78
2018-11-27T11:35:01.993Z,4.77
2018-11-27T11:40:01.257Z,4.81
2018-11-27T11:45:01.516Z,4.87
2018-11-27T11:50:01.796Z,4.98
2018-11-27T11:55:02.025Z,5.05
2018-11-27T12:00:01.279Z,5.08
2018-11-27T12:05:01.587Z,5.13
2018-11-27T12:10:01.857Z,5.16
2018-11-27T12:15:01.173Z,5.36
2018-11-27T12:20:01.443Z,5.31
2018-11-27T12:25:01.719Z,5.39
2018-11-27T12:30:01.953Z,5.36
2018-11-27T12:35:01.215Z,5.23
2018-11-27T12:40:01.490Z,5.26
2018-11-27T12:45:01.752Z,5.24
2018-11-27T12:50:02.022Z,5.2
2018-11-27T12:55:01.274Z,5.2
2018-11-27T13:00:01.577Z,5.16
2018-11-27T13:05:01.851Z,5.2
2018-11-27T13:10:01.100Z,5.15
2018-11-27T13:15:01.403Z,5.15
2018-11-27T13:20:01.703Z,5.1
2018-11-27T13:25:01.944Z,5.07
2018-11-27T13:30:01.195Z,5.05
2018-11-27T13:35:01.504Z,5.02
2018-11-27T13:40:01.924Z,5.02
2018-11-27T13:45:01.241Z,5.05
2018-11-27T13:50:01.511Z,5.03
2018-11-27T13:55:01.796Z,5.06
2018-11-27T14:00:02.053Z,5.06
2018-11-27T14:05:01.333Z,5.04
2018-11-27T14:10:01.650Z,5.02
2018-11-27T14:15:01.919Z,4.98
2018-11-27T14:20:01.323Z,4.94
2018-11-27T14:25:01.702Z,4.95
2018-11-27T14:30:01.985Z,4.97
2018-11-27T14:35:01.323Z,4.98
2018-11-27T14:40:01.663Z,4.94
2018-11-27T14:45:01.962Z,4.88
2018-11-27T14:50:04.048Z,4.8
2018-11-27T14:55:01.550Z,4.77
2018-11-27T15:00:01.516Z,4.73
2018-11-27T15:05:01.796Z,4.67
2018-11-27T15:10:02.035Z,4.57
2018-11-27T15:15:01.272Z,4.54
2018-11-27T15:20:01.576Z,4.45
2018-11-27T15:25:01.910Z,4.28
2018-11-27T15:30:01.248Z,4.12
2018-11-27T15:35:01.584Z,4.01
2018-11-27T15:40:01.850Z,3.85
2018-11-27T15:45:01.114Z,3.77
2018-11-27T15:50:01.421Z,3.68
2018-11-27T15:55:01.712Z,3.56
2018-11-27T16:00:01.974Z,3.44
2018-11-27T16:05:01.248Z,3.29
2018-11-27T16:10:01.553Z,3.24
2018-11-27T16:15:01.835Z,3.18
2018-11-27T16:20:01.115Z,3.18
2018-11-27T16:25:01.517Z,3.18
2018-11-27T16:30:01.805Z,3.16
2018-11-27T16:35:01.167Z,3.14
2018-11-27T16:40:01.465Z,3.16
2018-11-27T16:45:01.750Z,3.21
2018-11-27T16:50:02.012Z,3.27
2018-11-27T16:55:01.458Z,3.28
2018-11-27T17:00:01.787Z,3.32
2018-11-27T17:05:02.054Z,3.35
2018-11-27T17:10:01.325Z,3.4
2018-11-27T17:15:01.625Z,3.41
2018-11-27T17:20:01.883Z,3.41
2018-11-27T17:25:01.133Z,3.38
2018-11-27T17:30:01.469Z,3.34
2018-11-27T17:35:01.911Z,3.29
2018-11-27T17:40:01.168Z,3.21
2018-11-27T17:45:01.432Z,3.2
2018-11-27T17:50:01.753Z,3.2
2018-11-27T17:55:02.019Z,3.17
2018-11-27T18:00:01.285Z,3.14
2018-11-27T18:05:01.578Z,3.13
2018-11-27T18:10:01.857Z,3.08
2018-11-27T18:15:01.150Z,3.04
2018-11-27T18:20:01.696Z,2.94
2018-11-27T18:25:01.945Z,2.85
2018-11-27T18:30:01.188Z,2.75
2018-11-27T18:35:01.511Z,2.7
2018-11-27T18:40:01.758Z,2.67
2018-11-27T18:45:02.017Z,2.66
2018-11-27T18:50:01.269Z,2.56
2018-11-27T18:55:01.608Z,2.5
2018-11-27T19:00:01.878Z,2.43
2018-11-27T19:05:01.158Z,2.39
2018-11-27T19:10:01.433Z,2.32
2018-11-27T19:15:01.739Z,2.32
2018-11-27T19:20:02.011Z,2.21
2018-11-27T19:25:01.292Z,2.11
2018-11-27T19:30:01.547Z,2.1
2018-11-27T19:35:01.834Z,2.02
2018-11-27T19:40:01.111Z,1.99
2018-11-27T19:45:01.420Z,1.95
2018-11-27T19:50:01.705Z,1.96
2018-11-27T19:55:01.985Z,1.94
2018-11-27T20:00:01.295Z,1.91
2018-11-27T20:05:01.632Z,1.93
2018-11-27T20:10:01.889Z,1.83
2018-11-27T20:15:01.210Z,1.8
2018-11-27T20:20:01.485Z,1.75
2018-11-27T20:25:01.744Z,1.79
2018-11-27T20:30:02.020Z,1.75
2018-11-27T20:35:01.325Z,1.75
2018-11-27T20:40:01.627Z,1.79
2018-11-27T20:45:01.893Z,1.78
2018-11-27T20:50:01.187Z,1.69
2018-11-27T20:55:01.510Z,1.73
2018-11-27T21:00:01.793Z,1.69
2018-11-27T21:05:01.097Z,1.67
2018-11-27T21:10:01.439Z,1.68
2018-11-27T21:15:01.970Z,1.67
2018-11-27T21:20:01.227Z,1.68
2018-11-27T21:25:01.548Z,1.66
2018-11-27T21:30:01.914Z,1.57
2018-11-27T21:35:01.190Z,1.57
2018-11-27T21:40:01.518Z,1.56
2018-11-27T21:45:01.791Z,1.57
2018-11-27T21:50:02.079Z,1.54
2018-11-27T21:55:01.322Z,1.54
2018-11-27T22:00:01.603Z,1.56
2018-11-27T22:05:01.898Z,1.6
2018-11-27T22:10:01.183Z,1.51
2018-11-27T22:15:01.526Z,1.5
2018-11-27T22:20:01.844Z,1.48
2018-11-27T22:25:01.211Z,1.47
2018-11-27T22:30:01.522Z,1.46
2018-11-27T22:35:01.836Z,1.5
2018-11-27T22:40:02.245Z,1.5
2018-11-27T22:45:01.480Z,1.47
2018-11-27T22:50:01.785Z,1.46
2018-11-27T22:55:02.031Z,1.42
2018-11-27T23:00:01.276Z,1.45
2018-11-27T23:05:01.583Z,1.47
2018-11-27T23:10:01.847Z,1.49
2018-11-27T23:15:01.102Z,1.56
2018-11-27T23:20:01.409Z,1.56
2018-11-27T23:25:01.679Z,1.58
2018-11-27T23:30:01.933Z,1.63
2018-11-27T23:35:01.210Z,1.63
2018-11-27T23:40:01.501Z,1.62
2018-11-27T23:45:01.786Z,1.63
2018-11-27T23:50:02.055Z,1.62
2018-11-27T23:55:01.317Z,1.62
